Time;durP1;ratioP1;P1;durP2;ratioP2;P2;SDS_P1;SDS_P2;PMS_P1;PMS_P2;Temp;Humidity;BMP_temperature;BMP_pressure;BME280_temperature;BME280_humidity;BME280_pressure;Samples;Min_cycle;Max_cycle;Signal;HPM_P1;HPM_P2
2023/12/07 00:01:37;;;;;;;58.83;23.25;;;;;;;;;;4895659;29;20056;-89
2023/12/07 00:04:03;;;;;;;64.80;24.65;;;;;;;;;;4897624;29;20506;-88
2023/12/07 00:06:30;;;;;;;68.40;24.40;;;;;;;;;;4908222;29;20051;-90
2023/12/07 00:08:56;;;;;;;53.17;21.75;;;;;;;;;;4908937;29;20099;-89
2023/12/07 00:11:24;;;;;;;52.72;22.23;;;0.60;99.90;;;;;;4907653;29;20076;-88
2023/12/07 00:13:50;;;;;;;52.55;22.33;;;;;;;;;;4899544;29;20058;-88
2023/12/07 00:16:16;;;;;;;50.35;22.85;;;;;;;;;;4891631;29;20051;-89
2023/12/07 00:18:43;;;;;;;51.92;21.40;;;;;;;;;;4911612;29;20075;-89
2023/12/07 00:21:09;;;;;;;48.15;22.02;;;;;;;;;;4904432;29;20058;-89
2023/12/07 00:23:39;;;;;;;57.95;22.33;;;1.60;99.90;;;;;;4890518;29;20143;-89
2023/12/07 00:26:06;;;;;;;56.97;22.75;;;;;;;;;;4898430;29;20490;-89
2023/12/07 00:28:32;;;;;;;50.80;21.98;;;;;;;;;;4888682;29;20122;-90
2023/12/07 00:30:58;;;;;;;51.17;22.30;;;;;;;;;;4896753;29;20577;-88
2023/12/07 00:33:24;;;;;;;46.85;19.95;;;;;;;;;;4900543;29;20087;-90
2023/12/07 00:35:50;;;;;;;50.25;21.25;;;;;;;;;;4899501;29;20600;-88
2023/12/07 00:38:16;;;;;;;50.92;20.52;;;;;;;;;;4887647;29;20067;-90
2023/12/07 00:40:46;;;;;;;51.10;22.45;;;;;;;;;;4886730;29;20052;-89
2023/12/07 00:43:13;;;;;;;47.22;20.45;;;;;;;;;;4885765;29;20059;-90
2023/12/07 00:45:39;;;;;;;45.88;21.10;;;;;;;;;;4902880;29;20087;-89
2023/12/07 00:48:05;;;;;;;53.92;21.25;;;;;;;;;;4895847;29;20040;-89
2023/12/07 00:50:32;;;;;;;54.25;20.98;;;;;;;;;;4888022;29;20052;-89
2023/12/07 00:52:58;;;;;;;50.65;21.70;;;;;;;;;;4896425;29;20107;-89
2023/12/07 00:55:24;;;;;;;45.95;19.42;;;;;;;;;;4908988;29;20052;-89
2023/12/07 00:57:50;;;;;;;46.75;20.42;;;;;;;;;;4915683;29;20056;-88
2023/12/07 01:00:16;;;;;;;45.30;18.55;;;;;;;;;;4893811;29;20051;-89
2023/12/07 01:02:43;;;;;;;43.60;19.25;;;;;;;;;;4899678;29;20047;-90
2023/12/07 01:05:09;;;;;;;43.85;19.00;;;;;;;;;;4897913;29;20055;-89
2023/12/07 01:07:35;;;;;;;46.42;20.00;;;;;;;;;;4911703;29;20051;-88
2023/12/07 01:10:01;;;;;;;46.45;18.98;;;;;;;;;;4885834;29;20135;-89
2023/12/07 01:12:27;;;;;;;44.38;17.85;;;;;;;;;;4901565;29;20048;-89
2023/12/07 01:14:53;;;;;;;42.30;18.15;;;;;;;;;;4904695;29;20116;-88
2023/12/07 01:17:19;;;;;;;40.58;17.10;;;;;;;;;;4892673;29;20063;-89
2023/12/07 01:19:48;;;;;;;44.28;18.83;;;;;;;;;;4897307;29;20048;-90
2023/12/07 01:22:14;;;;;;;40.63;18.85;;;;;;;;;;4902089;29;20055;-89
2023/12/07 01:24:41;;;;;;;42.53;18.75;;;;;;;;;;4906707;29;20060;-88
2023/12/07 01:27:07;;;;;;;46.20;19.55;;;;;;;;;;4890264;29;20107;-87
2023/12/07 01:29:33;;;;;;;46.53;20.10;;;;;;;;;;4904547;29;20067;-88
2023/12/07 01:31:59;;;;;;;41.95;18.27;;;;;;;;;;4898160;29;20054;-90
2023/12/07 01:34:25;;;;;;;43.35;19.00;;;;;;;;;;4897739;29;20062;-89
2023/12/07 01:36:51;;;;;;;44.78;18.88;;;;;;;;;;4896424;29;20052;-88
2023/12/07 01:39:17;;;;;;;42.65;17.63;;;;;;;;;;4882595;29;20048;-87
2023/12/07 01:41:44;;;;;;;39.75;18.50;;;;;;;;;;4896681;29;20067;-87
2023/12/07 01:44:10;;;;;;;41.72;18.20;;;;;;;;;;4901722;29;20060;-89
2023/12/07 01:46:36;;;;;;;40.05;18.23;;;;;;;;;;4898786;29;20052;-88
2023/12/07 01:49:10;;;;;;;44.17;19.20;;;;;;;;;;4891618;29;20040;-88
2023/12/07 01:51:36;;;;;;;55.88;19.48;;;;;;;;;;4897080;29;20074;-88
2023/12/07 01:54:02;;;;;;;38.45;17.08;;;;;;;;;;4901981;29;20055;-90
2023/12/07 01:56:30;;;;;;;45.38;17.63;;;1.60;99.90;;;;;;4892466;29;20153;-90
2023/12/07 01:58:56;;;;;;;39.67;16.42;;;;;;;;;;4918284;29;20062;-89
2023/12/07 02:01:23;;;;;;;33.42;17.15;;;;;;;;;;4891039;29;20051;-89
2023/12/07 02:03:49;;;;;;;37.78;16.92;;;;;;;;;;4900388;29;20131;-87
2023/12/07 02:06:15;;;;;;;36.33;17.13;;;;;;;;;;4906689;29;20549;-88
2023/12/07 02:08:42;;;;;;;41.08;17.23;;;;;;;;;;4899314;29;20044;-87
2023/12/07 02:11:11;;;;;;;106.15;20.90;;;;;;;;;;4911810;29;20801;-88
2023/12/07 02:13:38;;;;;;;59.05;21.13;;;1.60;99.90;;;;;;4903338;29;20052;-88
2023/12/07 02:16:17;;;;;;;54.55;18.92;;;1.60;99.90;;;;;;4896876;29;20060;-88
2023/12/07 02:18:53;;;;;;;39.88;17.50;;;1.60;99.90;;;;;;4900989;29;20304;-88
2023/12/07 02:21:40;;;;;;;52.00;18.30;;;1.60;99.90;;;;;;4888633;29;20075;-88
2023/12/07 02:24:07;;;;;;;43.53;17.38;;;1.60;99.90;;;;;;4894545;29;20055;-87
2023/12/07 02:26:39;;;;;;;44.28;17.60;;;;;;;;;;4897283;29;20054;-89
2023/12/07 02:29:05;;;;;;;43.33;17.48;;;;;;;;;;4896622;29;20047;-90
2023/12/07 02:31:31;;;;;;;45.47;18.52;;;1.50;99.90;;;;;;4900813;29;20083;-87
2023/12/07 02:33:58;;;;;;;42.45;18.17;;;;;;;;;;4892799;29;20106;-86
2023/12/07 02:36:28;;;;;;;43.20;18.60;;;1.60;99.90;;;;;;4891094;29;20147;-88
2023/12/07 02:38:58;;;;;;;47.05;18.95;;;1.50;99.90;;;;;;4896689;29;20063;-88
2023/12/07 02:41:24;;;;;;;42.83;17.83;;;;;;;;;;4884548;29;20092;-90
2023/12/07 02:43:57;;;;;;;45.15;18.75;;;;;;;;;;4893656;29;20058;-90
2023/12/07 02:46:24;;;;;;;48.92;18.60;;;;;;;;;;4897564;29;20501;-90
2023/12/07 02:48:51;;;;;;;47.35;19.83;;;;;;;;;;4891105;29;20048;-90
2023/12/07 02:51:17;;;;;;;47.40;18.40;;;;;;;;;;4888111;29;20055;-90
2023/12/07 02:53:47;;;;;;;58.45;19.98;;;;;;;;;;4904206;29;20094;-91
2023/12/07 02:56:13;;;;;;;51.00;19.35;;;;;;;;;;4895995;29;20774;-90
2023/12/07 02:58:39;;;;;;;55.67;20.15;;;;;;;;;;4890597;29;20519;-90
2023/12/07 03:01:05;;;;;;;43.55;19.33;;;;;;;;;;4891002;29;20052;-89
2023/12/07 03:03:31;;;;;;;47.80;20.52;;;;;;;;;;4887797;29;20066;-90
2023/12/07 03:05:57;;;;;;;49.58;20.77;;;;;;;;;;4895459;29;20476;-88
2023/12/07 03:08:23;;;;;;;71.15;21.05;;;;;;;;;;4896908;29;20051;-89
2023/12/07 03:10:49;;;;;;;62.28;22.48;;;;;;;;;;4887824;29;20071;-89
2023/12/07 03:13:16;;;;;;;60.10;21.05;;;;;;;;;;4888402;29;20520;-90
2023/12/07 03:15:42;;;;;;;65.68;21.67;;;;;;;;;;4890903;29;20091;-89
2023/12/07 03:18:08;;;;;;;66.72;21.85;;;;;;;;;;4913059;29;20048;-90
2023/12/07 03:20:34;;;;;;;52.22;20.45;;;;;;;;;;4885170;29;20056;-89
2023/12/07 03:23:00;;;;;;;60.38;21.13;;;;;;;;;;4902201;29;20131;-89
2023/12/07 03:25:27;;;;;;;62.25;21.00;;;;;;;;;;4895270;29;20052;-91
2023/12/07 03:27:53;;;;;;;53.65;20.55;;;;;;;;;;4895737;29;20048;-90
2023/12/07 03:30:19;;;;;;;52.95;20.10;;;;;;;;;;4904059;29;20055;-88
2023/12/07 03:32:45;;;;;;;81.63;22.77;;;;;;;;;;4892244;29;20129;-89
2023/12/07 03:35:11;;;;;;;54.30;20.45;;;;;;;;;;4892668;29;20408;-89
2023/12/07 03:37:37;;;;;;;57.53;20.27;;;;;;;;;;4884847;29;20395;-89
2023/12/07 03:40:05;;;;;;;56.13;20.70;;;;;;;;;;4893726;29;20533;-89
2023/12/07 03:42:33;;;;;;;51.92;20.70;;;;;;;;;;4911341;29;20405;-88
2023/12/07 03:45:02;;;;;;;56.22;20.80;;;;;;;;;;4886557;29;20601;-88
2023/12/07 03:47:31;;;;;;;66.95;21.08;;;;;;;;;;4884151;29;20127;-89
2023/12/07 03:50:00;;;;;;;57.08;22.25;;;;;;;;;;4891521;29;20040;-88
2023/12/07 03:52:27;;;;;;;60.97;20.95;;;;;;;;;;4896512;29;20047;-87
2023/12/07 03:54:53;;;;;;;66.10;21.35;;;;;;;;;;4912463;29;20077;-90
2023/12/07 03:57:20;;;;;;;56.17;21.40;;;;;;;;;;4889444;29;20094;-90
2023/12/07 03:59:46;;;;;;;67.50;22.08;;;;;;;;;;4887254;29;20139;-89
2023/12/07 04:02:12;;;;;;;52.47;20.73;;;;;;;;;;4894300;29;20384;-90
2023/12/07 04:04:39;;;;;;;53.42;21.00;;;;;;;;;;4894302;29;20087;-88
2023/12/07 04:07:05;;;;;;;61.50;20.23;;;;;;;;;;4893488;29;20845;-90
2023/12/07 04:09:32;;;;;;;67.97;21.40;;;;;;;;;;4893958;29;20058;-89
2023/12/07 04:11:58;;;;;;;59.33;21.15;;;;;;;;;;4894758;29;20044;-88
2023/12/07 04:14:24;;;;;;;80.68;22.38;;;;;;;;;;4891310;29;20927;-89
2023/12/07 04:16:50;;;;;;;76.10;21.98;;;;;;;;;;4890731;29;20044;-90
2023/12/07 04:19:17;;;;;;;75.57;22.45;;;;;;;;;;4894615;29;20111;-88
2023/12/07 04:21:43;;;;;;;74.00;22.25;;;;;;;;;;4887907;29;20055;-89
2023/12/07 04:24:11;;;;;;;59.60;21.25;;;;;;;;;;4882939;29;20055;-90
2023/12/07 04:26:37;;;;;;;75.20;22.63;;;;;;;;;;4895760;29;20052;-90
2023/12/07 04:29:05;;;;;;;65.47;23.55;;;;;;;;;;4900017;29;20374;-89
2023/12/07 04:31:36;;;;;;;68.88;22.30;;;;;;;;;;4897419;29;20048;-90
2023/12/07 04:34:02;;;;;;;67.30;22.48;;;;;;;;;;4911718;29;20055;-88
2023/12/07 04:36:29;;;;;;;77.00;23.85;;;;;;;;;;4899376;29;20115;-88
2023/12/07 04:38:55;;;;;;;95.03;24.98;;;;;;;;;;4908736;29;20064;-90
2023/12/07 04:41:28;;;;;;;85.40;24.52;;;;;;;;;;4897242;29;20377;-89
2023/12/07 04:43:56;;;;;;;83.68;24.05;;;1.40;99.90;;;;;;4898287;29;20085;-88
2023/12/07 04:46:22;;;;;;;117.93;25.05;;;;;;;;;;4892761;29;20070;-89
2023/12/07 04:48:51;;;;;;;96.50;25.10;;;;;;;;;;4905976;29;20051;-89
2023/12/07 04:51:17;;;;;;;97.95;24.98;;;;;;;;;;4915361;29;20050;-89
2023/12/07 04:53:45;;;;;;;96.78;25.63;;;;;;;;;;4895637;29;20048;-88
2023/12/07 04:56:11;;;;;;;105.32;25.58;;;;;;;;;;4908997;29;20056;-89
2023/12/07 04:58:37;;;;;;;101.03;25.02;;;;;;;;;;4905657;29;20242;-88
2023/12/07 05:01:05;;;;;;;96.95;24.65;;;;;;;;;;4917102;29;20088;-89
2023/12/07 05:03:33;;;;;;;114.05;26.55;;;;;;;;;;4907693;29;20054;-89
2023/12/07 05:06:03;;;;;;;94.72;24.92;;;;;;;;;;4887908;29;20060;-89
2023/12/07 05:08:29;;;;;;;86.10;23.42;;;;;;;;;;4904664;29;20075;-89
2023/12/07 05:10:55;;;;;;;83.05;23.35;;;;;;;;;;4890466;29;20365;-89
2023/12/07 05:13:22;;;;;;;84.05;25.35;;;;;;;;;;4885751;29;20134;-88
2023/12/07 05:15:48;;;;;;;83.35;24.85;;;;;;;;;;4891482;29;20051;-89
2023/12/07 05:18:14;;;;;;;89.05;25.95;;;;;;;;;;4897407;29;20515;-89
2023/12/07 05:20:40;;;;;;;83.43;22.58;;;;;;;;;;4887422;29;20273;-88
2023/12/07 05:23:06;;;;;;;89.53;24.65;;;;;;;;;;4882100;29;20076;-89
2023/12/07 05:25:33;;;;;;;77.55;22.27;;;;;;;;;;4884096;29;20050;-89
2023/12/07 05:27:59;;;;;;;90.05;24.08;;;;;;;;;;4896239;29;20051;-90
2023/12/07 05:30:25;;;;;;;87.28;23.70;;;;;;;;;;4895197;29;20051;-89
2023/12/07 05:32:51;;;;;;;99.63;25.85;;;;;;;;;;4886311;29;20048;-88
2023/12/07 05:35:20;;;;;;;104.15;26.27;;;;;;;;;;4886284;29;20059;-89
2023/12/07 05:37:46;;;;;;;121.10;25.58;;;;;;;;;;4886747;29;20056;-89
2023/12/07 05:40:12;;;;;;;98.40;25.00;;;;;;;;;;4906502;29;20107;-89
2023/12/07 05:42:38;;;;;;;118.95;26.45;;;;;;;;;;4891810;29;20813;-89
2023/12/07 05:45:06;;;;;;;121.15;25.92;;;;;;;;;;4890213;29;20062;-89
2023/12/07 05:47:32;;;;;;;108.43;25.52;;;;;;;;;;4895204;29;20048;-89
2023/12/07 05:50:03;;;;;;;169.82;29.35;;;;;;;;;;4890976;29;20095;-89
2023/12/07 05:52:29;;;;;;;100.50;24.15;;;;;;;;;;4884825;29;20048;-89
2023/12/07 05:54:56;;;;;;;99.03;25.00;;;;;;;;;;4897932;29;20142;-88
2023/12/07 05:57:22;;;;;;;115.75;26.05;;;;;;;;;;4884669;29;20051;-90
2023/12/07 05:59:49;;;;;;;105.95;25.45;;;;;;;;;;4888735;29;20059;-89
2023/12/07 06:02:15;;;;;;;120.03;27.27;;;;;;;;;;4883418;29;20063;-89
2023/12/07 06:04:41;;;;;;;117.13;26.17;;;;;;;;;;4906809;29;20108;-87
2023/12/07 06:07:07;;;;;;;122.20;26.05;;;;;;;;;;4912978;29;20040;-89
2023/12/07 06:09:34;;;;;;;116.97;26.17;;;;;;;;;;4879959;29;20056;-89
2023/12/07 06:12:00;;;;;;;120.43;27.15;;;;;;;;;;4879417;29;20138;-89
2023/12/07 06:14:26;;;;;;;166.07;28.00;;;;;;;;;;4892137;29;20055;-89
2023/12/07 06:16:52;;;;;;;209.52;30.63;;;;;;;;;;4897979;29;20047;-88
2023/12/07 06:19:18;;;;;;;159.13;27.15;;;;;;;;;;4893840;29;20059;-89
2023/12/07 06:21:45;;;;;;;103.50;24.27;;;;;;;;;;4897207;29;20047;-88
2023/12/07 06:24:11;;;;;;;178.63;28.48;;;;;;;;;;4882002;29;20055;-89
2023/12/07 06:26:40;;;;;;;176.15;28.42;;;;;;;;;;4890849;29;20043;-89
2023/12/07 06:29:09;;;;;;;115.88;24.95;;;;;;;;;;4896362;29;20055;-89
2023/12/07 06:31:37;;;;;;;118.53;24.92;;;;;;;;;;4886768;29;20047;-90
2023/12/07 06:34:03;;;;;;;138.57;25.38;;;;;;;;;;4912880;29;20047;-89
2023/12/07 06:36:29;;;;;;;113.88;25.23;;;;;;;;;;4897415;29;20059;-88
2023/12/07 06:38:56;;;;;;;222.48;28.42;;;;;;;;;;4900526;29;20474;-89
2023/12/07 06:41:22;;;;;;;174.65;27.30;;;;;;;;;;4906757;29;20047;-89
2023/12/07 06:43:48;;;;;;;119.82;24.35;;;;;;;;;;4919568;29;20112;-89
2023/12/07 06:46:16;;;;;;;119.22;25.38;;;;;;;;;;4915329;29;20055;-89
2023/12/07 06:48:42;;;;;;;108.68;24.63;;;;;;;;;;4917295;29;20147;-89
2023/12/07 06:51:08;;;;;;;233.55;28.67;;;;;;;;;;4879076;29;20155;-88
2023/12/07 06:53:34;;;;;;;167.40;28.80;;;;;;;;;;4892183;29;20048;-88
2023/12/07 06:56:00;;;;;;;120.70;27.02;;;;;;;;;;4882620;29;20050;-87
2023/12/07 06:58:26;;;;;;;126.72;26.52;;;;;;;;;;4884375;29;20063;-88
2023/12/07 07:00:53;;;;;;;105.43;26.02;;;;;;;;;;4901186;29;20062;-88
2023/12/07 07:03:19;;;;;;;195.02;28.17;;;;;;;;;;4908729;29;20049;-87
2023/12/07 07:05:45;;;;;;;147.75;30.98;;;;;;;;;;4895237;29;20091;-89
2023/12/07 07:08:11;;;;;;;160.68;31.85;;;;;;;;;;4890125;29;20580;-89
2023/12/07 07:10:38;;;;;;;214.98;33.88;;;;;;;;;;4884338;29;20052;-89
2023/12/07 07:13:05;;;;;;;164.98;34.67;;;;;;;;;;4895966;29;20130;-88
2023/12/07 07:15:33;;;;;;;126.60;33.20;;;;;;;;;;4902247;29;20047;-88
2023/12/07 07:17:59;;;;;;;174.93;36.20;;;;;;;;;;4904143;29;20455;-89
2023/12/07 07:20:27;;;;;;;176.80;35.85;;;;;;;;;;4888992;29;20055;-88
2023/12/07 07:22:53;;;;;;;168.70;33.65;;;;;;;;;;4898582;29;20405;-89
2023/12/07 07:25:19;;;;;;;221.45;37.75;;;;;;;;;;4886215;29;20116;-88
2023/12/07 07:27:46;;;;;;;230.50;36.15;;;;;;;;;;4888854;29;20060;-88
2023/12/07 07:30:12;;;;;;;186.18;37.42;;;;;;;;;;4879179;29;20131;-87
2023/12/07 07:32:38;;;;;;;166.40;36.30;;;;;;;;;;4890051;29;20218;-88
2023/12/07 07:35:05;;;;;;;182.65;36.55;;;;;;;;;;4879690;29;20060;-89
2023/12/07 07:37:31;;;;;;;159.35;39.72;;;;;;;;;;4895211;29;20061;-89
2023/12/07 07:39:57;;;;;;;145.75;36.42;;;;;;;;;;4887710;29;20139;-88
2023/12/07 07:42:23;;;;;;;196.82;37.63;;;;;;;;;;4883153;29;20162;-87
2023/12/07 07:44:49;;;;;;;179.02;40.60;;;;;;;;;;4894842;29;20490;-88
2023/12/07 07:47:15;;;;;;;206.68;42.95;;;;;;;;;;4894978;29;20084;-88
2023/12/07 07:49:41;;;;;;;222.90;45.65;;;;;;;;;;4899941;29;20052;-87
2023/12/07 07:52:08;;;;;;;390.10;52.60;;;;;;;;;;4895664;29;20500;-88
2023/12/07 07:54:34;;;;;;;290.35;46.35;;;;;;;;;;4893255;29;20059;-87
2023/12/07 07:57:00;;;;;;;348.80;49.88;;;;;;;;;;4893073;29;20052;-88
2023/12/07 07:59:26;;;;;;;257.45;46.25;;;;;;;;;;4896753;29;20852;-87
2023/12/07 08:01:53;;;;;;;444.95;56.53;;;;;;;;;;4881030;29;20052;-87
2023/12/07 08:04:21;;;;;;;452.83;56.70;;;;;;;;;;4884992;29;20106;-88
2023/12/07 08:06:48;;;;;;;229.65;43.90;;;;;;;;;;4882690;29;20478;-89
2023/12/07 08:09:15;;;;;;;383.40;51.38;;;;;;;;;;4883769;29;20139;-88
2023/12/07 08:11:41;;;;;;;280.77;48.33;;;;;;;;;;4892758;29;20488;-88
2023/12/07 08:14:07;;;;;;;372.42;53.92;;;;;;;;;;4893337;29;20079;-88
2023/12/07 08:16:33;;;;;;;303.75;51.33;;;;;;;;;;4893221;29;20111;-88
2023/12/07 08:18:59;;;;;;;231.18;50.28;;;;;;;;;;4897424;29;20084;-89
2023/12/07 08:21:25;;;;;;;261.05;52.15;;;;;;;;;;4885067;29;20142;-87
2023/12/07 08:23:52;;;;;;;220.73;50.30;;;;;;;;;;4880597;29;20044;-87
2023/12/07 08:26:20;;;;;;;430.83;62.53;;;;;;;;;;4882810;29;20112;-87
2023/12/07 08:28:46;;;;;;;213.88;52.38;;;;;;;;;;4893117;29;20052;-89
2023/12/07 08:31:12;;;;;;;293.63;58.85;;;;;;;;;;4916413;29;20517;-88
2023/12/07 08:33:41;;;;;;;198.25;51.63;;;;;;;;;;4894556;29;20082;-88
2023/12/07 08:36:08;;;;;;;220.68;53.33;;;;;;;;;;4904173;29;20055;-88
2023/12/07 08:38:34;;;;;;;189.38;52.85;;;;;;;;;;4905115;29;20063;-87
2023/12/07 08:41:00;;;;;;;163.48;49.40;;;;;;;;;;4893097;29;20553;-89
2023/12/07 08:43:28;;;;;;;241.88;54.67;;;;;;;;;;4882981;29;20134;-89
2023/12/07 08:45:54;;;;;;;211.50;55.78;;;;;;;;;;4890464;29;20127;-87
2023/12/07 08:48:20;;;;;;;217.32;56.15;;;;;;;;;;4888863;29;20410;-89
2023/12/07 08:50:50;;;;;;;267.75;58.88;;;0.20;99.90;;;;;;4899766;29;20052;-87
2023/12/07 08:53:15;;;;;;;197.40;53.53;;;0.70;99.90;;;;;;4897909;29;20043;-89
2023/12/07 08:55:42;;;;;;;216.70;53.95;;;;;;;;;;4904240;29;20143;-88
2023/12/07 08:58:08;;;;;;;195.50;51.42;;;;;;;;;;4902485;29;20048;-88
2023/12/07 09:00:34;;;;;;;279.73;55.60;;;;;;;;;;4905083;29;20060;-87
2023/12/07 09:03:01;;;;;;;186.35;51.47;;;;;;;;;;4900509;29;20541;-89
2023/12/07 09:05:28;;;;;;;176.10;45.20;;;;;;;;;;4901045;29;20048;-88
2023/12/07 09:07:57;;;;;;;231.68;50.55;;;;;;;;;;4893554;29;20052;-88
2023/12/07 09:10:23;;;;;;;160.13;44.60;;;;;;;;;;4889532;29;20077;-88
2023/12/07 09:12:49;;;;;;;153.55;42.10;;;;;;;;;;4911706;29;20138;-88
2023/12/07 09:15:16;;;;;;;122.90;38.58;;;;;;;;;;4891045;29;20622;-87
2023/12/07 09:17:42;;;;;;;148.52;40.30;;;;;;;;;;4898637;29;20059;-88
2023/12/07 09:20:12;;;;;;;143.27;41.38;;;;;;;;;;4889382;29;20088;-88
2023/12/07 09:22:44;;;;;;;160.30;41.13;;;;;;;;;;4893441;29;20512;-88
2023/12/07 09:25:10;;;;;;;139.30;41.63;;;;;;;;;;4884492;29;20417;-88
2023/12/07 09:27:37;;;;;;;129.10;38.08;;;;;;;;;;4889184;29;20111;-88
2023/12/07 09:30:12;;;;;;;148.32;42.10;;;0.20;99.90;;;;;;4899962;29;20115;-86
2023/12/07 09:32:39;;;;;;;159.98;42.38;;;;;;;;;;4895019;29;20055;-89
2023/12/07 09:35:07;;;;;;;163.35;42.00;;;;;;;;;;4888366;29;20047;-88
2023/12/07 09:37:33;;;;;;;124.65;39.42;;;;;;;;;;4894254;29;20136;-88
2023/12/07 09:39:59;;;;;;;192.68;44.00;;;;;;;;;;4893531;29;20071;-88
2023/12/07 09:42:26;;;;;;;206.20;45.80;;;;;;;;;;4884249;29;20115;-89
2023/12/07 09:44:52;;;;;;;161.30;46.13;;;;;;;;;;4886438;29;20059;-88
2023/12/07 09:47:18;;;;;;;243.88;49.75;;;;;;;;;;4901155;29;20047;-87
2023/12/07 09:49:45;;;;;;;138.27;44.42;;;;;;;;;;4887368;29;20058;-87
2023/12/07 09:52:12;;;;;;;135.25;44.35;;;;;;;;;;4885817;29;20048;-88
2023/12/07 09:54:42;;;;;;;133.77;45.38;;;0.30;99.90;;;;;;4888360;29;20527;-89
2023/12/07 09:57:11;;;;;;;185.68;49.65;;;;;;;;;;4899664;29;20773;-87
2023/12/07 09:59:37;;;;;;;161.60;49.38;;;;;;;;;;4892178;29;20044;-88
2023/12/07 10:02:03;;;;;;;195.30;52.40;;;;;;;;;;4900068;29;20051;-88
2023/12/07 10:04:29;;;;;;;174.77;53.08;;;;;;;;;;4886717;29;20494;-89
2023/12/07 10:06:57;;;;;;;135.80;47.65;;;0.50;99.90;;;;;;4889027;29;20059;-87
2023/12/07 10:09:25;;;;;;;89.22;40.35;;;0.60;99.90;;;;;;4895010;29;20079;-91
2023/12/07 10:12:04;;;;;;;139.18;48.75;;;0.70;99.90;;;;;;4885851;29;20068;-87
2023/12/07 10:14:30;;;;;;;188.50;53.45;;;;;;;;;;4884083;29;20059;-88
2023/12/07 10:16:56;;;;;;;173.30;50.35;;;;;;;;;;4901758;29;20052;-86
2023/12/07 10:19:23;;;;;;;192.48;54.95;;;;;;;;;;4884536;29;20047;-87
2023/12/07 10:21:50;;;;;;;170.65;51.35;;;0.90;99.90;;;;;;4891646;29;20055;-88
2023/12/07 10:24:20;;;;;;;175.85;54.00;;;0.90;99.90;;;;;;4879888;29;20047;-88
2023/12/07 10:26:47;;;;;;;295.25;57.88;;;;;;;;;;4887795;29;20066;-86
2023/12/07 10:29:19;;;;;;;142.15;47.38;;;1.00;99.90;;;;;;4902490;29;20123;-88
2023/12/07 10:31:47;;;;;;;234.32;52.33;;;;;;;;;;4891464;29;20080;-88
2023/12/07 10:34:13;;;;;;;136.13;47.35;;;;;;;;;;4884197;29;20055;-88
2023/12/07 10:36:39;;;;;;;234.45;58.80;;;;;;;;;;4882628;29;20123;-87
2023/12/07 10:39:06;;;;;;;191.07;52.97;;;0.80;99.90;;;;;;4890849;29;20054;-87
2023/12/07 10:41:35;;;;;;;190.93;54.10;;;1.10;99.90;;;;;;4891177;29;20067;-87
2023/12/07 10:44:03;;;;;;;171.32;51.13;;;1.10;99.90;;;;;;4902756;29;20131;-87
2023/12/07 10:46:33;;;;;;;150.27;49.67;;;1.10;99.90;;;;;;4900828;29;20055;-86
2023/12/07 10:49:01;;;;;;;188.90;55.00;;;1.20;99.90;;;;;;4903010;29;20104;-88
2023/12/07 10:51:37;;;;;;;184.40;54.20;;;1.30;99.90;;;;;;4884927;29;20104;-90
2023/12/07 10:54:08;;;;;;;206.50;57.53;;;1.40;99.90;;;;;;4909525;29;20089;-89
2023/12/07 10:56:39;;;;;;;301.02;64.75;;;;;;;;;;4918673;29;20366;-91
2023/12/07 10:59:13;;;;;;;273.58;64.53;;;1.50;99.90;;;;;;4904914;29;20048;-87
2023/12/07 11:01:43;;;;;;;256.02;60.47;;;1.60;99.90;;;;;;4893608;29;20108;-90
2023/12/07 11:04:15;;;;;;;225.90;53.95;;;;;;;;;;4888251;29;20052;-89
2023/12/07 11:06:46;;;;;;;204.50;54.00;;;1.70;99.90;;;;;;4882763;29;20052;-86
2023/12/07 11:09:29;;;;;;;309.92;56.53;;;1.70;99.90;;;;;;4898335;29;20055;-88
2023/12/07 11:12:07;;;;;;;201.65;49.10;;;1.70;99.90;;;;;;4903427;29;20539;-89
2023/12/07 11:14:33;;;;;;;175.30;47.70;;;;;;;;;;4895559;29;20498;-87
2023/12/07 11:16:59;;;;;;;191.07;51.05;;;;;;;;;;4892868;29;20070;-88
2023/12/07 11:19:36;;;;;;;223.90;50.53;;;1.70;99.90;;;;;;4886952;29;20071;-92
2023/12/07 11:22:04;;;;;;;195.68;44.17;;;1.70;99.90;;;;;;4893807;29;20062;-90
2023/12/07 11:24:30;;;;;;;261.02;47.10;;;;;;;;;;4903348;29;20059;-90
2023/12/07 11:27:01;;;;;;;156.57;41.85;;;1.60;99.90;;;;;;4902865;29;20048;-89
2023/12/07 11:29:31;;;;;;;185.90;44.70;;;1.60;99.90;;;;;;4892273;29;20383;-88
2023/12/07 11:32:04;;;;;;;168.10;41.83;;;1.60;99.90;;;;;;4913378;29;20122;-89
2023/12/07 11:34:38;;;;;;;182.88;43.45;;;1.60;99.90;;;;;;4900940;29;20059;-87
2023/12/07 11:37:05;;;;;;;172.25;41.05;;;;;;;;;;4889150;29;20742;-90
2023/12/07 11:39:41;;;;;;;171.70;42.78;;;1.70;99.90;;;;;;4888686;29;20055;-89
2023/12/07 11:42:08;;;;;;;168.75;41.70;;;1.70;99.90;;;;;;4881737;29;20052;-90
2023/12/07 11:44:34;;;;;;;185.25;43.33;;;;;;;;;;4891959;29;20054;-88
2023/12/07 11:47:01;;;;;;;148.80;42.25;;;;;;;;;;4894932;29;20092;-89
2023/12/07 11:49:28;;;;;;;174.80;41.72;;;1.70;99.90;;;;;;4885674;29;20054;-89
2023/12/07 11:51:55;;;;;;;248.05;48.67;;;;;;;;;;4883060;29;20116;-88
2023/12/07 11:54:22;;;;;;;204.98;44.78;;;1.80;99.90;;;;;;4894776;29;20063;-88
2023/12/07 11:56:55;;;;;;;193.45;44.63;;;1.80;99.90;;;;;;4894908;29;20127;-89
2023/12/07 11:59:25;;;;;;;242.18;48.00;;;1.80;99.90;;;;;;4889892;29;20095;-88
2023/12/07 12:01:51;;;;;;;250.00;47.90;;;1.90;99.90;;;;;;4897228;29;20050;-89
2023/12/07 12:04:18;;;;;;;239.95;47.85;;;;;;;;;;4903801;29;20580;-87
2023/12/07 12:06:47;;;;;;;201.32;47.17;;;;;;;;;;4915214;29;20059;-91
2023/12/07 12:09:17;;;;;;;191.70;45.05;;;;;;;;;;4894353;29;20131;-92
2023/12/07 12:11:47;;;;;;;216.52;47.78;;;1.90;99.90;;;;;;4895553;29;20047;-87
2023/12/07 12:14:19;;;;;;;192.98;44.58;;;;;;;;;;4884537;29;20052;-88
2023/12/07 12:16:48;;;;;;;174.70;42.05;;;;;;;;;;4896936;29;20459;-91
2023/12/07 12:19:14;;;;;;;190.57;43.67;;;;;;;;;;4889097;29;20134;-88
2023/12/07 12:21:41;;;;;;;218.18;45.47;;;;;;;;;;4894751;29;20072;-89
2023/12/07 12:24:10;;;;;;;165.63;42.47;;;;;;;;;;4913904;29;20348;-88
2023/12/07 12:26:38;;;;;;;185.40;41.95;;;;;;;;;;4897034;29;20051;-89
2023/12/07 12:29:04;;;;;;;175.43;43.72;;;;;;;;;;4888334;29;20561;-89
2023/12/07 12:31:30;;;;;;;208.70;44.65;;;;;;;;;;4903042;29;20124;-89
2023/12/07 12:34:01;;;;;;;272.80;52.72;;;1.90;99.90;;;;;;4888067;29;20509;-88
2023/12/07 12:36:29;;;;;;;199.47;47.73;;;;;;;;;;4893720;29;20106;-87
2023/12/07 12:38:55;;;;;;;188.32;43.35;;;;;;;;;;4895128;29;20521;-90
2023/12/07 12:41:22;;;;;;;193.23;43.55;;;;;;;;;;4893655;29;20055;-90
2023/12/07 12:43:49;;;;;;;218.27;47.50;;;;;;;;;;4893139;29;20103;-89
2023/12/07 12:46:18;;;;;;;191.63;41.67;;;;;;;;;;4888304;29;20071;-91
2023/12/07 12:48:59;;;;;;;183.02;42.38;;;1.90;99.90;;;;;;4899953;29;20056;-87
2023/12/07 12:51:27;;;;;;;160.02;40.80;;;1.70;99.90;;;;;;4889459;29;20055;-89
2023/12/07 12:53:54;;;;;;;165.93;40.45;;;1.80;99.90;;;;;;4914665;29;20094;-88
2023/12/07 12:56:21;;;;;;;165.07;40.13;;;;;;;;;;4886632;29;20170;-88
2023/12/07 12:58:51;;;;;;;173.38;40.53;;;1.70;99.90;;;;;;4890725;29;20088;-88
2023/12/07 13:01:18;;;;;;;150.50;39.85;;;;;;;;;;4901192;29;20052;-89
2023/12/07 13:03:46;;;;;;;193.30;41.47;;;;;;;;;;4908551;29;20079;-90
2023/12/07 13:06:14;;;;;;;186.85;38.80;;;;;;;;;;4906485;29;20044;-89
2023/12/07 13:08:41;;;;;;;197.85;39.80;;;;;;;;;;4918788;29;20107;-88
2023/12/07 13:11:07;;;;;;;249.50;47.40;;;;;;;;;;4894022;29;20048;-88
2023/12/07 13:13:33;;;;;;;236.15;43.47;;;;;;;;;;4908602;29;20048;-89
2023/12/07 13:15:59;;;;;;;200.77;40.70;;;;;;;;;;4891063;29;20059;-89
2023/12/07 13:18:25;;;;;;;195.23;40.67;;;;;;;;;;4900958;29;20047;-87
2023/12/07 13:20:51;;;;;;;202.52;38.67;;;;;;;;;;4896333;29;20553;-87
2023/12/07 13:23:18;;;;;;;194.98;41.13;;;;;;;;;;4893041;29;20050;-87
2023/12/07 13:25:44;;;;;;;201.13;38.40;;;;;;;;;;4893674;29;20441;-91
2023/12/07 13:28:10;;;;;;;236.10;42.65;;;;;;;;;;4912488;29;20060;-90
2023/12/07 13:30:37;;;;;;;220.93;41.25;;;;;;;;;;4895285;29;20044;-88
2023/12/07 13:33:07;;;;;;;231.75;41.78;;;;;;;;;;4894266;29;20087;-89
2023/12/07 13:35:34;;;;;;;227.47;40.63;;;;;;;;;;4906248;29;20114;-89
2023/12/07 13:38:01;;;;;;;215.85;40.22;;;;;;;;;;4906410;29;20295;-90
2023/12/07 13:40:27;;;;;;;239.55;42.75;;;;;;;;;;4894558;29;20184;-93
2023/12/07 13:42:53;;;;;;;232.77;42.60;;;;;;;;;;4898954;29;20047;-88
2023/12/07 13:45:19;;;;;;;258.75;42.90;;;;;;;;;;4899483;29;20047;-88
2023/12/07 13:47:48;;;;;;;211.82;39.58;;;;;;;;;;4893497;29;20052;-91
2023/12/07 13:50:14;;;;;;;233.02;42.53;;;;;;;;;;4900767;29;20048;-89
2023/12/07 13:52:41;;;;;;;299.80;43.78;;;;;;;;;;4894982;29;20047;-90